AirNav   Pilot Hours Calculator
 
 1013 users online  

97MI Hawk Hollow Heliport
Brighton, Michigan, USA

GOING TO BRIGHTON?


FAA INFORMATION EFFECTIVE 07 NOVEMBER 2019

Location

FAA Identifier: 97MI
Lat/Long: 42-33-40.6800N 083-44-07.8000W
42-33.678000N 083-44.130000W
42.5613000,-83.7355000
(estimated)
Elevation: 950 ft. / 290 m (estimated)
From city: 3 miles ENE of BRIGHTON, MI
Time zone: UTC -5 (UTC -4 during Daylight Saving Time)
Zip code: 48116

Heliport Operations

Heliport use: Private use. Permission required prior to landing
Activation date: 01/2018
Control tower: no
ARTCC: CLEVELAND CENTER
FSS: LANSING FLIGHT SERVICE STATION
Attendance: 
Wind indicator: lighted
Segmented circle: no

Heliport Communications

WX AWOS-3 at OZW (12 nm W): 118.875 (517-546-4450)
WX ASOS at PTK (15 nm NE): 125.025 (248-886-8551)

Nearby radio navigation aids

VOR radial/distance  VOR name  Freq  Var
SVMr329/11.1SALEM VORTAC114.3003W
FNTr185/24.3FLINT VORTAC116.9006W
DXOr328/26.5DETROIT VOR/DME113.4006W
CRLr341/33.2CARLETON VOR/DME115.7003W
JXNr065/36.8JACKSON VOR/DME109.6005W

 
NDB name  Hdg/Dist  Freq  Var  ID
TECUMSEH018/32.323906WTCU - -.-. ..-
GROSSE ILE324/37.841907WRYS .-. -.-- ...

Heliport Services

Runway Information

Helipad H1

Dimensions: 20 x 20 ft. / 6 x 6 m
Surface: concrete, in excellent condition
Operational restrictions: TLOF 20X20 FT, FATO 60X60 FT. INGRESS/EGRESS N/S.
Latitude: 42-33.678000N
Longitude: 083-44.130000W
Elevation: 950.0 ft.
Traffic pattern: leftleft

Heliport Ownership and Management from official FAA records

Ownership: Privately-owned
Owner: HAWK HOLLOW FARM, LLC
7915 KENSINGTON COURT
BRIGHTON, MI 48116
Phone 248-563-1140
Manager: TIM BENTLEY
7915 KENSINGTON COURT
BRIGHTON, MI 48116
Phone 248-563-1140

Heliport Operational Statistics

Aircraft based on the field: 1
Helicopters: 1
    

Additional Remarks

FOR CD CTC CLEVELAND ARTCC AT 440-774-0490.

Instrument Procedures

There are no published instrument procedures at 97MI.

Some nearby airports with instrument procedures:

Y47 - Oakland Southwest Airport (6 nm SE)
KOZW - Livingston County Spencer J Hardy Airport (12 nm W)
9G2 - Price's Airport (15 nm N)
KPTK - Oakland County International Airport (15 nm NE)
1D2 - Canton-Plymouth-Mettetal Airport (18 nm SE)
 
Loc | Ops | Rwys | IFR | FBO | Links
Com | Nav | Svcs | Stats | Notes
Aerial photo
No photo
 
Airport distance calculator
Flying to Hawk Hollow Heliport? Find the distance to fly.

From to 97MI

Sunrise and sunset
Times for 20-Nov-2019
 Local
(UTC-5)
 Zulu
(UTC)
Morning civil twilight07:0312:03
Sunrise07:3312:33
Sunset17:0822:08
Evening civil twilight17:3822:38

Current date and time
Zulu (UTC)  20-Nov-2019 12:43:48
Local (UTC-5)  20-Nov-2019 07:43:48
 
METAR
KOZW 
11nm W 
201215Z AUTO 21003KT 4SM BR OVC019 02/01 A3012 RMK AO2 T00200006
KPTK 
15nm NE 
201153Z 28004KT 5SM BR OVC027 02/00 A3010 RMK AO2 SLP199 T00220000 10028 20017 51024
KARB 
21nm S 
734-668-7173
201153Z AUTO 00000KT 4SM BR OVC024 01/M01 A3012 RMK AO2 SLP207 T00061006 10028 21028 51023
TAF
KPTK 
15nm NE 
201124Z 2012/2112 30004KT 4SM BR OVC026 FM201400 28005KT P6SM OVC022 FM201700 25005KT P6SM OVC016 FM210200 19005KT P6SM OVC015 FM210900 16008KT P6SM SCT015 BKN200
NOTAMs
Click for the latest NOTAMs
NOTAMs are issued by the DoD/FAA and will open in a separate window not controlled by AirNav.

 

 
 

Would you like to see your business listed on this page?

 If your business provides an interesting product or service to pilots, flight crews, aircraft, or users of the Hawk Hollow Heliport, you should consider listing it here.  To start the listing process, click on the button below
 
Add a business
 

Other Pages about Hawk Hollow Heliport

Update a link
 
Copyright © AirNav, LLC. All rights reserved. Privacy Policy  Contact